Time;durP1;ratioP1;P1;durP2;ratioP2;P2;SDS_P1;SDS_P2;PMS_P1;PMS_P2;Temp;Humidity;BMP_temperature;BMP_pressure;BME280_temperature;BME280_humidity;BME280_pressure;Samples;Min_cycle;Max_cycle;Signal;HPM_P1;HPM_P2
2021/12/23 00:01:43;;;;;;;60.30;27.48;;;;;;;-6.24;64.59;93025.03;2068307;69;20612;-70
2021/12/23 00:04:10;;;;;;;55.85;21.70;;;;;;;-6.07;65.26;93022.34;2068238;69;20587;-80
2021/12/23 00:06:39;;;;;;;37.05;16.83;;;;;;;-5.89;64.71;93028.06;2070108;69;20226;-80
2021/12/23 00:09:05;;;;;;;33.92;15.60;;;;;;;-5.92;64.08;93022.84;2068258;69;20144;-76
2021/12/23 00:11:31;;;;;;;30.98;13.73;;;;;;;-5.87;63.95;93022.81;2071442;69;20227;-68
2021/12/23 00:14:03;;;;;;;33.67;13.95;;;;;;;-6.04;63.23;93024.09;2065411;69;20172;-81
2021/12/23 00:17:16;;;;;;;;;;;;;;;-6.23;65.55;93032.78;2066703;69;20262;-70
2021/12/23 00:19:46;;;;;;;49.90;19.52;;;;;;;-6.10;64.59;93024.06;2069837;69;20163;-70
2021/12/23 00:24:56;;;;;;;45.83;19.77;;;;;;;-6.11;63.68;93025.31;2070725;69;20188;-73
2021/12/23 00:27:22;;;;;;;41.05;17.52;;;;;;;-6.16;64.27;93024.06;2070387;69;20156;-70
2021/12/23 00:29:48;;;;;;;37.17;18.00;;;;;;;-6.12;64.21;93025.81;2067288;69;20615;-74
2021/12/23 00:32:15;;;;;;;40.00;16.85;;;;;;;-6.05;64.48;93025.31;2071157;69;20163;-69
2021/12/23 00:34:41;;;;;;;29.58;13.68;;;;;;;-5.99;65.09;93012.38;2071418;69;20128;-69
2021/12/23 00:37:09;;;;;;;22.65;9.43;;;;;;;-5.90;65.89;93017.59;2071501;69;20155;-69
2021/12/23 00:39:35;;;;;;;26.42;11.82;;;;;;;-5.82;64.73;93017.84;2071669;69;20265;-68
2021/12/23 00:42:06;;;;;;;22.50;10.13;;;;;;;-5.81;64.50;93011.88;2071055;69;20622;-69
2021/12/23 00:44:35;;;;;;;36.53;16.05;;;;;;;-6.06;64.90;93016.34;2069880;69;20307;-71
2021/12/23 00:47:01;;;;;;;39.42;15.85;;;;;;;-6.08;64.35;93013.38;2070716;69;20152;-77
2021/12/23 00:49:26;;;;;;;34.17;14.38;;;;;;;-5.96;63.96;93011.38;2069395;69;20557;-74
2021/12/23 00:51:57;;;;;;;33.03;14.38;;;;;;;-5.94;64.65;93006.16;2067550;69;20607;-69
2021/12/23 00:54:23;;;;;;;41.20;17.27;;;;;;;-6.04;64.23;93018.59;2067439;69;20616;-73
2021/12/23 00:56:50;;;;;;;36.72;16.13;;;;;;;-6.15;64.70;93005.63;2067545;69;20152;-74
2021/12/23 00:59:16;;;;;;;37.97;14.07;;;;;;;-6.12;64.35;93012.09;2067212;69;20137;-75
2021/12/23 01:01:42;;;;;;;40.40;16.85;;;;;;;-6.14;64.20;93007.09;2064290;69;20533;-69
2021/12/23 01:04:08;;;;;;;33.10;14.77;;;;;;;-6.15;64.68;93005.63;2067020;69;20241;-69
2021/12/23 01:06:33;;;;;;;31.30;13.70;;;;;;;-6.06;64.17;93007.38;2067025;69;20172;-70
2021/12/23 01:08:59;;;;;;;31.45;13.07;;;;;;;-6.00;64.05;92999.91;2063581;69;20160;-69
2021/12/23 01:11:29;;;;;;;31.38;13.38;;;;;;;-6.14;63.58;93009.84;2064165;69;20615;-68
2021/12/23 01:14:26;;;;;;;27.88;11.20;;;;;;;-5.96;64.36;93003.16;2064337;69;20145;-68
2021/12/23 01:17:11;;;;;;;23.95;9.35;;;;;;;-5.96;65.88;92992.94;2064453;69;20564;-70
2021/12/23 01:19:40;;;;;;;17.60;8.00;;;;;;;-5.64;64.62;92998.88;2064682;69;20816;-68
2021/12/23 01:22:08;;;;;;;18.70;7.33;;;;;;;-5.71;64.35;92991.19;2064300;69;20145;-68
2021/12/23 01:24:35;;;;;;;15.73;6.50;;;;;;;-5.55;64.33;92988.91;2064726;69;20236;-68
2021/12/23 01:27:02;;;;;;;18.98;8.23;;;;;;;-5.77;65.02;92990.44;2064741;69;20145;-71
2021/12/23 01:29:27;;;;;;;18.35;7.28;;;;;;;-5.69;64.42;92987.94;2064517;69;20274;-68
2021/12/23 01:31:53;;;;;;;17.83;6.72;;;;;;;-5.62;64.71;92988.19;2063826;69;20247;-77
2021/12/23 01:34:19;;;;;;;14.13;6.28;;;;;;;-5.54;64.56;92991.19;2064146;69;20584;-77
2021/12/23 01:36:45;;;;;;;10.80;4.93;;;;;;;-5.46;63.63;92992.16;2063838;69;20164;-77
2021/12/23 01:39:13;;;;;;;14.13;5.43;;;;;;;-5.52;64.29;92994.16;2063830;69;20172;-72
2021/12/23 01:41:40;;;;;;;15.40;6.80;;;;;;;-5.55;63.85;92992.41;2063227;69;20141;-79
2021/12/23 01:44:05;;;;;;;16.17;7.03;;;;;;;-5.54;63.73;92988.44;2063962;69;20145;-72
2021/12/23 01:46:31;;;;;;;10.80;5.28;;;;;;;-5.43;64.86;92982.19;2063578;69;20655;-69
2021/12/23 01:48:57;;;;;;;8.90;4.45;;;;;;;-5.47;64.47;92982.44;2064027;69;20188;-69
2021/12/23 01:51:23;;;;;;;10.07;5.30;;;;;;;-5.46;65.10;92980.44;2064226;69;20220;-68
2021/12/23 01:53:49;;;;;;;14.50;5.55;;;;;;;-5.47;63.95;92979.69;2064461;69;20145;-70
2021/12/23 01:56:15;;;;;;;9.88;4.70;;;;;;;-5.40;64.33;92975.69;2062929;69;20629;-70
2021/12/23 01:58:42;;;;;;;11.35;5.30;;;;;;;-5.34;63.30;92972.94;2063306;69;20149;-69
2021/12/23 02:01:08;;;;;;;11.35;4.55;;;;;;;-5.31;63.50;92971.91;2064064;69;20316;-72
2021/12/23 02:03:35;;;;;;;10.25;4.60;;;;;;;-5.25;63.51;92976.16;2064386;69;20524;-74
2021/12/23 02:06:01;;;;;;;10.35;3.92;;;;;;;-5.22;63.12;92975.16;2066253;69;20213;-77
2021/12/23 02:08:26;;;;;;;8.57;4.10;;;;;;;-5.19;63.29;92971.41;2071169;69;20597;-74
2021/12/23 02:10:54;;;;;;;15.82;7.07;;;;;;;-5.87;64.96;92980.94;2071544;69;20206;-75
2021/12/23 02:13:21;;;;;;;11.90;6.13;;;;;;;-5.69;63.68;92980.44;2071366;69;20615;-67
2021/12/23 02:15:49;;;;;;;13.95;6.55;;;;;;;-5.77;64.47;92981.44;2068204;69;20209;-74
2021/12/23 02:18:16;;;;;;;13.98;5.93;;;;;;;-5.73;64.29;92979.19;2071381;69;20198;-70
2021/12/23 02:20:41;;;;;;;13.30;5.95;;;;;;;-5.62;63.91;92979.94;2071203;69;20243;-69
2021/12/23 02:23:09;;;;;;;13.25;6.03;;;;;;;-5.51;63.34;92984.69;2071268;69;20210;-70
2021/12/23 02:25:36;;;;;;;12.00;5.28;;;;;;;-5.52;63.35;92985.19;2071294;69;20682;-69
2021/12/23 02:28:08;;;;;;;11.73;5.60;;;;;;;-5.67;64.28;92977.97;2071063;69;20253;-69
2021/12/23 02:30:38;;;;;;;8.93;4.30;;;;;;;-5.52;64.42;92987.94;2068108;69;20210;-72
2021/12/23 02:33:06;;;;;;;9.00;4.32;;;;;;;-5.41;64.15;92980.41;2071353;69;20152;-69
2021/12/23 02:35:33;;;;;;;9.93;4.70;;;;;;;-5.46;64.14;92985.91;2071121;69;20342;-69
2021/12/23 02:38:00;;;;;;;9.40;4.53;;;;;;;-5.60;63.92;92973.97;2071505;69;20148;-77
2021/12/23 02:40:30;;;;;;;10.15;5.20;;;;;;;-5.69;64.73;92980.44;2070941;69;20167;-68
2021/12/23 02:43:09;;;;;;;10.82;5.07;;;;;;;-5.73;64.14;92976.47;2063784;69;20246;-77
2021/12/23 02:45:34;;;;;;;10.65;4.47;;;;;;;-5.62;63.54;92974.47;2071237;69;20140;-79
2021/12/23 02:48:01;;;;;;;6.93;3.60;;;;;;;-5.33;63.53;92977.19;2071373;69;20256;-75
2021/12/23 02:50:26;;;;;;;5.93;3.30;;;;;;;-5.20;63.25;92980.91;2071291;69;20136;-75
2021/12/23 02:52:53;;;;;;;7.20;3.28;;;;;;;-5.31;64.56;92969.94;2071346;69;20139;-71
2021/12/23 02:55:19;;;;;;;8.75;3.63;;;;;;;-5.21;63.92;92975.91;2071377;69;20187;-69
2021/12/23 02:57:46;;;;;;;8.60;3.80;;;;;;;-5.29;63.12;92967.44;2071618;69;20591;-70
2021/12/23 03:00:13;;;;;;;10.70;3.28;;;;;;;-5.37;63.47;92967.19;2071990;69;20134;-70
2021/12/23 03:02:40;;;;;;;10.10;3.33;;;;;;;-5.36;63.34;92965.19;2068570;69;20144;-70
2021/12/23 03:05:07;;;;;;;7.28;3.40;;;;;;;-5.32;63.26;92970.44;2071801;69;20476;-71
2021/12/23 03:07:33;;;;;;;11.35;4.32;;;;;;;-5.49;64.66;92962.25;2071912;69;20179;-70
2021/12/23 03:09:59;;;;;;;8.13;3.53;;;;;;;-5.44;63.93;92961.47;2071870;69;20144;-69
2021/12/23 03:12:24;;;;;;;10.10;4.20;;;;;;;-5.42;64.07;92958.97;2068563;69;20171;-71
2021/12/23 03:14:50;;;;;;;10.55;3.92;;;;;;;-5.29;63.31;92953.72;2071923;69;20143;-77
2021/12/23 03:17:16;;;;;;;10.90;4.15;;;;;;;-5.45;64.77;92952.50;2071861;69;20215;-79
2021/12/23 03:19:41;;;;;;;8.82;4.35;;;;;;;-5.41;63.83;92952.97;2071732;69;20653;-76
2021/12/23 03:22:07;;;;;;;7.93;4.05;;;;;;;-5.45;64.00;92949.75;2071867;69;20157;-73
2021/12/23 03:24:33;;;;;;;9.23;3.97;;;;;;;-5.33;63.46;92944.25;2071903;69;20579;-71
2021/12/23 03:26:59;;;;;;;9.95;4.82;;;;;;;-5.33;63.96;92939.50;2071823;69;20144;-74
2021/12/23 03:29:25;;;;;;;10.40;3.95;;;;;;;-5.46;64.17;92942.75;2071815;69;20222;-72
2021/12/23 03:31:50;;;;;;;8.65;4.50;;;;;;;-5.39;64.36;92938.78;2068671;69;20156;-71
2021/12/23 03:34:16;;;;;;;7.63;4.13;;;;;;;-5.38;64.10;92949.25;2071735;69;20145;-73
2021/12/23 03:36:43;;;;;;;7.90;4.00;;;;;;;-5.35;63.53;92957.72;2071811;69;20139;-70
2021/12/23 03:39:08;;;;;;;8.70;3.90;;;;;;;-5.30;63.69;92946.00;2071865;69;20136;-74
2021/12/23 03:41:34;;;;;;;10.13;5.15;;;;;;;-5.84;65.31;92943.56;2070139;69;20604;-69
2021/12/23 03:44:00;;;;;;;10.68;4.88;;;;;;;-5.57;64.30;92937.31;2070965;69;20141;-72
2021/12/23 03:46:25;;;;;;;9.27;4.88;;;;;;;-5.45;64.01;92930.56;2068510;69;20133;-79
2021/12/23 03:48:51;;;;;;;8.73;4.15;;;;;;;-5.41;64.30;92922.78;2068433;69;20144;-77
2021/12/23 03:51:17;;;;;;;7.80;4.43;;;;;;;-5.44;64.42;92920.34;2068503;69;20176;-71
2021/12/23 03:53:42;;;;;;;8.85;4.45;;;;;;;-5.44;64.10;92921.06;2068491;69;20149;-72
2021/12/23 03:56:08;;;;;;;8.45;3.97;;;;;;;-5.32;63.75;92929.28;2065266;69;20144;-78
2021/12/23 03:58:34;;;;;;;7.15;3.55;;;;;;;-5.16;63.50;92931.97;2068566;69;20152;-74
2021/12/23 04:00:59;;;;;;;8.77;3.85;;;;;;;-5.13;63.30;92930.97;2071053;69;20136;-75
2021/12/23 04:03:25;;;;;;;10.65;4.57;;;;;;;-5.34;63.75;92920.81;2071864;69;20663;-75
2021/12/23 04:05:51;;;;;;;9.45;3.85;;;;;;;-5.37;63.78;92912.31;2071681;69;20152;-72
2021/12/23 04:08:17;;;;;;;7.88;4.07;;;;;;;-5.42;63.88;92915.06;2068400;69;20596;-70
2021/12/23 04:10:43;;;;;;;7.95;4.35;;;;;;;-5.43;64.54;92919.81;2071858;69;20171;-69
2021/12/23 04:13:08;;;;;;;10.35;4.55;;;;;;;-5.34;64.23;92915.31;2071858;69;20500;-70
2021/12/23 04:15:34;;;;;;;15.55;6.03;;;;;;;-5.29;64.31;92912.56;2071841;69;20665;-78
2021/12/23 04:18:00;;;;;;;28.13;14.35;;;;;;;-5.52;64.86;92909.09;2071942;69;20595;-79
2021/12/23 04:20:33;;;;;;;14.65;7.22;;;;;;;-5.32;63.74;92913.53;2071724;69;20227;-70
2021/12/23 04:22:58;;;;;;;16.60;8.15;;;;;;;-5.28;64.54;92913.28;2071818;69;20253;-76
2021/12/23 04:25:26;;;;;;;17.48;8.90;;;;;;;-5.23;64.26;92912.53;2071963;69;20253;-70
2021/12/23 04:27:54;;;;;;;20.90;10.57;;;;;;;-5.10;63.80;92910.00;2071840;69;20136;-74
2021/12/23 04:30:23;;;;;;;21.98;10.35;;;;;;;-5.53;65.52;92917.84;2068457;69;20152;-71
2021/12/23 04:32:49;;;;;;;20.33;11.30;;;;;;;-5.31;64.68;92919.78;2069995;69;20628;-71
2021/12/23 04:35:14;;;;;;;29.88;14.80;;;;;;;-5.47;65.35;92905.59;2068335;69;20661;-72
2021/12/23 04:37:40;;;;;;;30.08;17.70;;;;;;;-5.47;65.42;92910.34;2068403;69;20180;-74
2021/12/23 04:40:08;;;;;;;31.17;16.15;;;;;;;-5.43;64.78;92913.59;2065065;69;20274;-71
2021/12/23 04:42:35;;;;;;;27.65;14.88;;;;;;;-5.34;63.81;92909.81;2068447;69;20203;-73
2021/12/23 04:45:01;;;;;;;15.88;8.48;;;;;;;-5.08;63.91;92907.50;2065156;69;20152;-69
2021/12/23 04:47:27;;;;;;;24.27;13.02;;;;;;;-5.21;64.20;92904.56;2068407;69;20207;-72
2021/12/23 04:49:52;;;;;;;26.25;13.00;;;;;;;-5.23;63.67;92887.81;2068213;69;20512;-75
2021/12/23 04:52:18;;;;;;;18.52;10.93;;;;;;;-5.18;64.02;92895.28;2068360;69;20153;-72
2021/12/23 04:54:44;;;;;;;29.50;13.80;;;;;;;-5.24;64.61;92895.31;2065199;69;20580;-76
2021/12/23 04:57:09;;;;;;;40.33;18.25;;;;;;;-5.19;64.33;92889.06;2068437;69;20148;-74
2021/12/23 04:59:35;;;;;;;24.05;12.57;;;;;;;-5.14;63.78;92888.28;2068403;69;20738;-74
2021/12/23 05:02:01;;;;;;;26.50;13.57;;;;;;;-5.05;63.15;92883.75;2068457;69;20290;-72
2021/12/23 05:04:26;;;;;;;18.48;10.52;;;;;;;-5.05;63.21;92883.75;2068287;69;20205;-73
2021/12/23 05:06:52;;;;;;;21.27;10.88;;;;;;;-5.14;64.20;92882.78;2068367;69;20164;-73
2021/12/23 05:09:17;;;;;;;35.80;14.73;;;;;;;-5.22;64.35;92881.09;2068377;69;20643;-70
2021/12/23 05:11:44;;;;;;;29.10;14.13;;;;;;;-5.27;64.41;92876.34;2068549;69;20260;-70
2021/12/23 05:14:10;;;;;;;27.80;13.05;;;;;;;-5.15;64.34;92869.59;2068388;69;20275;-71
2021/12/23 05:16:37;;;;;;;26.25;12.05;;;;;;;-5.03;64.05;92865.53;2068364;69;20152;-76
2021/12/23 05:19:03;;;;;;;25.90;12.48;;;;;;;-4.93;63.58;92877.72;2068233;69;20581;-68
2021/12/23 05:21:29;;;;;;;22.00;11.05;;;;;;;-4.86;63.24;92873.69;2068530;69;20156;-72
2021/12/23 05:23:54;;;;;;;18.02;9.63;;;;;;;-4.82;63.38;92871.41;2068318;69;20133;-72
2021/12/23 05:26:20;;;;;;;13.52;6.78;;;;;;;-4.79;63.54;92864.19;2068428;69;20144;-72
2021/12/23 05:28:46;;;;;;;16.02;8.02;;;;;;;-4.86;63.70;92855.22;2068275;69;20141;-76
2021/12/23 05:31:11;;;;;;;16.98;8.48;;;;;;;-4.81;63.32;92850.19;2068343;69;20209;-75
2021/12/23 05:33:37;;;;;;;18.63;8.88;;;;;;;-4.83;63.16;92833.50;2068310;69;20277;-74
2021/12/23 05:36:03;;;;;;;18.05;8.80;;;;;;;-5.08;64.13;92830.63;2064901;69;20206;-70
2021/12/23 05:38:29;;;;;;;17.13;7.72;;;;;;;-4.96;63.89;92823.81;2068306;69;20217;-75
2021/12/23 05:40:54;;;;;;;5.70;1.90;;;;;;;-4.61;62.12;92812.13;2068286;69;20152;-76
2021/12/23 05:43:20;;;;;;;4.45;2.10;;;;;;;-4.30;61.65;92821.13;2068337;69;20140;-76
2021/12/23 05:45:46;;;;;;;30.23;12.77;;;;;;;-4.77;63.18;92823.22;2068320;69;20168;-77
2021/12/23 05:48:11;;;;;;;32.97;15.07;;;;;;;-4.66;62.84;92817.66;2068400;69;20188;-76
2021/12/23 05:50:37;;;;;;;25.27;12.90;;;;;;;-4.74;63.57;92817.44;2068182;69;20240;-69
2021/12/23 05:53:02;;;;;;;33.50;14.48;;;;;;;-4.74;62.76;92820.19;2068252;69;20590;-75
2021/12/23 05:55:28;;;;;;;13.82;6.40;;;;;;;-4.46;61.79;92808.25;2068236;69;20164;-73
2021/12/23 05:57:54;;;;;;;5.90;2.72;;;;;;;-4.16;60.78;92809.03;2068238;69;20151;-75
2021/12/23 06:00:26;;;;;;;13.43;6.90;;;;;;;-4.12;59.77;92811.50;2068408;69;20210;-73
2021/12/23 06:02:52;;;;;;;11.55;4.68;;;;;;;-4.05;60.37;92812.94;2068236;69;20156;-75
2021/12/23 06:05:19;;;;;;;9.77;4.10;;;;;;;-4.02;60.27;92817.41;2068060;69;20172;-78
2021/12/23 06:07:45;;;;;;;6.25;3.63;;;;;;;-3.91;60.06;92804.28;2068265;69;20211;-80
2021/12/23 06:10:12;;;;;;;21.23;10.10;;;;;;;-4.03;60.67;92811.16;2068223;69;20238;-76
2021/12/23 06:12:38;;;;;;;14.80;7.40;;;;;;;-3.98;60.05;92806.88;2064853;69;20164;-69
2021/12/23 06:15:04;;;;;;;11.00;5.32;;;;;;;-3.94;60.14;92801.81;2068184;69;20149;-75
2021/12/23 06:17:32;;;;;;;24.13;11.02;;;;;;;-4.26;60.84;92790.59;2068143;69;20153;-78
2021/12/23 06:19:57;;;;;;;24.17;9.38;;;;;;;-4.13;61.13;92788.72;2068120;69;20673;-72
2021/12/23 06:22:23;;;;;;;17.73;8.80;;;;;;;-4.38;61.85;92789.97;2068204;69;20161;-69
2021/12/23 06:24:49;;;;;;;20.85;8.35;;;;;;;-4.20;61.34;92786.56;2068184;69;20160;-72
2021/12/23 06:27:16;;;;;;;16.55;6.88;;;;;;;-4.16;61.19;92798.03;2068211;69;20218;-74
2021/12/23 06:29:42;;;;;;;9.15;4.70;;;;;;;-4.07;61.30;92798.97;2068139;69;20148;-72
2021/12/23 06:32:09;;;;;;;13.63;5.95;;;;;;;-4.10;61.05;92800.72;2065084;69;20181;-73
2021/12/23 06:34:34;;;;;;;12.38;4.90;;;;;;;-4.11;60.91;92788.97;2068675;69;20176;-77
2021/12/23 06:37:00;;;;;;;8.55;3.90;;;;;;;-4.00;61.09;92799.13;2068710;69;20273;-76
2021/12/23 06:39:26;;;;;;;16.05;6.88;;;;;;;-4.33;61.26;92799.44;2065426;69;20157;-79
2021/12/23 06:41:53;;;;;;;14.90;6.95;;;;;;;-4.43;61.93;92802.50;2068927;69;20133;-77
2021/12/23 06:44:20;;;;;;;15.07;6.45;;;;;;;-4.41;61.13;92797.22;2068754;69;20160;-75
2021/12/23 06:46:46;;;;;;;17.70;8.38;;;;;;;-4.40;61.70;92801.47;2068799;69;20176;-76
2021/12/23 06:49:16;;;;;;;23.08;9.18;;;;;;;-4.43;61.45;92794.25;2065195;69;20156;-79
2021/12/23 06:51:42;;;;;;;18.08;8.50;;;;;;;-4.37;61.28;92794.94;2068785;69;20156;-79
2021/12/23 06:54:09;;;;;;;17.33;7.97;;;;;;;-4.45;61.00;92802.25;2068673;69;20160;-69
2021/12/23 06:56:34;;;;;;;44.28;20.38;;;;;;;-4.72;62.81;92806.72;2068720;69;20172;-69
2021/12/23 06:59:00;;;;;;;22.63;10.02;;;;;;;-4.74;62.35;92797.47;2068738;69;20164;-75
2021/12/23 07:01:26;;;;;;;24.98;10.82;;;;;;;-4.71;62.47;92807.44;2068870;69;20152;-76
2021/12/23 07:06:24;;;;;;;24.52;11.25;;;;;;;-4.73;61.72;92818.19;2068713;69;20239;-76
2021/12/23 07:08:50;;;;;;;26.30;11.13;;;;;;;-4.65;61.59;92810.91;2068613;69;20205;-75
2021/12/23 07:11:15;;;;;;;25.40;11.10;;;;;;;-4.66;62.39;92812.91;2068673;69;20152;-76
2021/12/23 07:13:41;;;;;;;24.58;10.50;;;;;;;-4.95;63.41;92819.84;2068670;69;20592;-78
2021/12/23 07:16:07;;;;;;;22.33;9.70;;;;;;;-4.68;62.66;92837.38;2068719;69;20155;-80
2021/12/23 07:18:32;;;;;;;14.00;7.13;;;;;;;-4.67;62.40;92829.91;2068147;69;20196;-79
2021/12/23 07:20:58;;;;;;;22.35;8.90;;;;;;;-4.78;62.95;92838.19;2068588;69;20600;-78
2021/12/23 07:23:23;;;;;;;22.05;9.18;;;;;;;-4.70;62.97;92842.66;2068711;69;20187;-73
2021/12/23 07:25:49;;;;;;;20.60;9.27;;;;;;;-4.61;62.53;92827.84;2068705;69;20156;-72
2021/12/23 07:28:15;;;;;;;53.67;21.10;;;;;;;-4.55;62.29;92830.56;2068566;69;20144;-70
2021/12/23 07:30:41;;;;;;;40.45;19.27;;;;;;;-4.53;62.48;92837.06;2068568;69;20184;-72
2021/12/23 07:33:07;;;;;;;46.42;20.52;;;;;;;-4.48;61.94;92816.28;2068632;69;20643;-83
2021/12/23 07:35:32;;;;;;;35.65;16.70;;;;;;;-4.50;62.21;92819.53;2068615;69;20148;-80
2021/12/23 07:38:01;;;;;;;29.20;13.15;;;;;;;-4.43;62.31;92821.72;2068618;69;20248;-78
2021/12/23 07:40:28;;;;;;;19.08;8.65;;;;;;;-4.26;61.42;92820.84;2068609;69;20153;-79
2021/12/23 07:42:56;;;;;;;17.33;7.40;;;;;;;-4.35;61.71;92830.19;2068675;69;20152;-80
2021/12/23 07:45:29;;;;;;;32.60;15.50;;;;;;;-4.47;63.03;92828.75;2068447;69;20140;-77
2021/12/23 07:47:56;;;;;;;57.60;25.42;;;;;;;-4.36;62.48;92826.66;2068683;69;20137;-70
2021/12/23 07:50:23;;;;;;;34.28;15.95;;;;;;;-4.44;62.82;92833.25;2068363;69;20508;-70
2021/12/23 07:52:48;;;;;;;53.95;21.20;;;;;;;-4.37;62.89;92813.44;2068519;69;20164;-70
2021/12/23 07:55:14;;;;;;;57.22;23.30;;;;;;;-4.32;62.29;92812.66;2068479;69;20206;-75
2021/12/23 07:57:40;;;;;;;60.08;24.05;;;;;;;-5.23;64.12;92816.47;2069473;69;20148;-71
2021/12/23 08:00:07;;;;;;;76.63;28.00;;;;;;;-4.95;64.20;92814.34;2071906;69;20136;-72
2021/12/23 08:02:40;;;;;;;78.68;29.17;;;;;;;-4.68;63.71;92822.91;2071588;69;20148;-70
2021/12/23 08:05:06;;;;;;;85.97;30.70;;;;;;;-4.53;63.29;92814.31;2071769;69;20140;-71
2021/12/23 08:07:31;;;;;;;70.93;27.30;;;;;;;-4.53;63.61;92815.06;2071943;69;20140;-77
2021/12/23 08:09:57;;;;;;;76.70;29.10;;;;;;;-4.41;62.72;92819.22;2072125;69;20147;-79
2021/12/23 08:12:23;;;;;;;91.03;30.48;;;;;;;-4.32;62.88;92815.41;2071805;69;20518;-73
2021/12/23 08:14:48;;;;;;;76.95;29.92;;;;;;;-4.31;62.99;92813.38;2071961;69;20180;-78
2021/12/23 08:17:14;;;;;;;55.40;21.67;;;;;;;-4.21;63.00;92811.81;2071664;69;20144;-77
2021/12/23 08:19:39;;;;;;;64.43;25.88;;;;;;;-4.41;63.06;92807.47;2071963;69;20152;-72
2021/12/23 08:22:06;;;;;;;76.32;27.08;;;;;;;-4.48;63.68;92819.78;2072086;69;20580;-71
2021/12/23 08:24:31;;;;;;;71.38;26.25;;;;;;;-4.29;63.26;92805.41;2071464;69;20150;-69
2021/12/23 08:26:57;;;;;;;68.88;25.88;;;;;;;-4.19;62.82;92801.06;2069882;69;20156;-68
2021/12/23 08:29:24;;;;;;;76.57;32.45;;;;;;;-4.01;62.91;92805.16;2071257;69;20151;-70
2021/12/23 08:31:53;;;;;;;127.60;50.78;;;;;;;-4.28;63.86;92804.13;2071890;69;20156;-69
2021/12/23 08:34:23;;;;;;;106.65;41.70;;;;;;;-4.05;63.30;92807.44;2070746;69;20718;-77
2021/12/23 08:36:51;;;;;;;93.15;38.60;;;;;;;-3.82;62.99;92816.97;2071037;69;20167;-72
2021/12/23 08:39:19;;;;;;;85.90;36.53;;;;;;;-3.67;62.22;92811.06;2071390;69;20230;-69
2021/12/23 08:41:46;;;;;;;83.75;37.53;;;;;;;-3.75;62.73;92805.41;2070357;69;20156;-78
2021/12/23 08:44:11;;;;;;;49.28;23.63;;;;;;;-3.68;62.35;92804.81;2071866;69;20142;-80
2021/12/23 08:46:37;;;;;;;100.03;37.67;;;;;;;-3.95;63.46;92817.56;2071856;69;20510;-73
2021/12/23 08:49:05;;;;;;;91.90;36.28;;;;;;;-3.83;63.91;92810.72;2071611;69;20221;-72
2021/12/23 08:51:35;;;;;;;71.57;30.23;;;;;;;-3.61;63.01;92807.00;2071824;69;20156;-72
2021/12/23 08:54:01;;;;;;;72.90;30.95;;;;;;;-3.41;63.13;92800.25;2068438;69;20215;-71
2021/12/23 08:56:27;;;;;;;80.70;32.63;;;;;;;-3.36;61.96;92804.22;2071589;69;20244;-72
2021/12/23 08:58:53;;;;;;;66.20;28.90;;;;;;;-3.25;63.18;92812.34;2071874;69;20202;-72
2021/12/23 09:01:19;;;;;;;66.65;30.05;;;;;;;-2.87;63.37;92804.13;2071716;69;20171;-72
2021/12/23 09:03:44;;;;;;;66.38;29.67;;;;;;;-2.68;62.18;92791.06;2071743;69;20144;-73
2021/12/23 09:06:10;;;;;;;80.22;33.63;;;;;;;-2.41;62.16;92788.41;2071563;69;20573;-75
2021/12/23 09:08:36;;;;;;;106.78;44.05;;;;;;;-2.25;62.62;92778.38;2071149;69;20140;-73
2021/12/23 09:11:03;;;;;;;77.60;33.88;;;;;;;-2.19;62.00;92804.63;2071728;69;20652;-70
2021/12/23 09:13:29;;;;;;;63.47;27.58;;;;;;;-1.75;62.37;92793.34;2071823;69;20168;-71
2021/12/23 09:15:55;;;;;;;45.17;20.23;;;;;;;-1.64;60.51;92801.44;2071707;69;20237;-78
2021/12/23 09:18:21;;;;;;;68.47;29.52;;;;;;;-1.45;61.59;92799.31;2071649;69;20554;-71
2021/12/23 09:20:48;;;;;;;94.80;39.20;;;;;;;-1.10;61.39;92797.38;2068365;69;20156;-73
2021/12/23 09:23:15;;;;;;;99.40;39.72;;;;;;;-0.95;60.28;92794.84;2071589;69;20175;-71
2021/12/23 09:25:41;;;;;;;271.83;115.03;;;;;;;-0.88;59.15;92793.44;2070729;69;20188;-74
2021/12/23 09:33:45;;;;;;;85.78;36.95;;;;;;;-0.24;58.19;92768.13;2071674;69;20573;-74
2021/12/23 09:36:11;;;;;;;86.20;39.10;;;;;;;0.15;58.32;92783.78;2071549;69;20603;-71
2021/12/23 09:38:37;;;;;;;60.38;28.88;;;;;;;0.23;57.42;92792.91;2071776;69;20535;-70
2021/12/23 09:41:11;;;;;;;50.28;23.52;;;;;;;0.80;56.44;92777.59;2071703;69;20155;-72
2021/12/23 09:43:39;;;;;;;49.55;23.17;;;;;;;1.12;55.19;92771.66;2071673;69;20151;-71
2021/12/23 09:46:06;;;;;;;42.38;20.55;;;;;;;1.07;54.59;92781.59;2071603;69;20196;-70
2021/12/23 09:48:33;;;;;;;41.70;21.20;;;;;;;0.71;54.46;92774.03;2071708;69;20136;-71
2021/12/23 09:51:06;;;;;;;44.88;22.33;;;;;;;1.34;54.92;92765.44;2071502;69;20161;-71
2021/12/23 09:53:33;;;;;;;38.88;19.58;;;;;;;1.50;52.57;92755.13;2071593;69;20140;-72
2021/12/23 09:55:59;;;;;;;37.90;18.83;;;;;;;1.56;53.22;92741.09;2071536;69;20267;-69
2021/12/23 09:58:25;;;;;;;30.48;15.57;;;;;;;1.41;52.61;92739.75;2071574;69;20151;-70
2021/12/23 10:00:51;;;;;;;36.90;16.70;;;;;;;1.55;52.07;92734.78;2071588;69;20132;-71
2021/12/23 10:03:19;;;;;;;33.42;16.52;;;;;;;1.58;52.00;92722.59;2071602;69;20223;-75
2021/12/23 10:05:46;;;;;;;25.15;13.15;;;;;;;1.79;51.41;92725.22;2071516;69;20167;-75
2021/12/23 10:08:13;;;;;;;30.48;16.15;;;;;;;1.78;51.30;92729.28;2071892;69;20205;-73
2021/12/23 10:10:56;;;;;;;33.25;16.58;;;;;;;1.89;51.83;92726.16;2072018;69;20250;-76
2021/12/23 10:30:17;;;;;;;34.42;15.48;;;;;;;4.04;47.86;92712.31;2072036;69;20215;-69
2021/12/23 10:38:34;;;;;;;27.73;14.02;;;;;;;4.82;46.68;92700.66;2072146;69;20137;-73
2021/12/23 10:41:08;;;;;;;20.33;11.70;;;;;;;5.52;44.76;92698.53;2072015;69;20702;-75
2021/12/23 10:43:48;;;;;;;20.70;11.93;;;;;;;6.03;42.85;92688.53;2072119;69;20140;-73
2021/12/23 10:46:22;;;;;;;16.63;9.45;;;;;;;5.94;42.65;92692.03;2072118;69;20240;-73
2021/12/23 10:48:48;;;;;;;17.50;9.43;;;;;;;6.81;41.75;92680.38;2071974;69;20210;-71
2021/12/23 10:51:18;;;;;;;20.85;8.35;;;;;;;6.72;38.37;92687.41;2071819;69;20152;-69
2021/12/23 10:59:16;;;;;;;15.90;9.50;;;;;;;7.50;38.74;92665.75;2072036;69;20229;-71
2021/12/23 11:02:07;;;;;;;22.05;11.98;;;;;;;8.25;38.79;92655.53;2072019;69;20140;-71
2021/12/23 11:05:14;;;;;;;19.23;11.50;;;;;;;9.87;35.81;92659.81;2071890;69;20152;-70
2021/12/23 11:08:04;;;;;;;18.65;10.43;;;;;;;8.95;36.01;92664.44;2071872;69;20172;-73
2021/12/23 11:10:57;;;;;;;20.98;11.68;;;;;;;6.74;36.92;92661.66;2071903;69;20136;-73
2021/12/23 11:31:15;;;;;;;24.42;11.60;;;;;;;5.32;41.36;92638.31;2071963;69;20231;-77
2021/12/23 11:43:58;;;;;;;22.35;10.93;;;;;;;3.47;45.40;92598.91;2071796;69;20141;-69
2021/12/23 11:46:54;;;;;;;23.45;10.80;;;;;;;4.42;43.97;92586.56;2071836;69;20248;-69
2021/12/23 11:49:20;;;;;;;33.50;14.75;;;;;;;3.78;44.42;92585.50;2068352;69;20152;-70
2021/12/23 11:54:41;;;;;;;16.08;8.10;;;;;;;4.01;44.91;92576.94;2071878;69;20140;-69
2021/12/23 11:57:28;;;;;;;17.30;8.85;;;;;;;4.13;44.84;92586.31;2071821;69;20171;-70
2021/12/23 12:00:19;;;;;;;19.67;8.30;;;;;;;3.88;44.41;92578.00;2072089;69;20224;-69
2021/12/23 12:02:58;;;;;;;21.25;8.68;;;;;;;3.59;45.21;92571.38;2071771;69;20237;-69
2021/12/23 12:05:24;;;;;;;50.63;13.52;;;;;;;3.09;46.36;92554.66;2070745;69;20145;-69
2021/12/23 12:08:06;;;;;;;27.52;12.45;;;;;;;3.26;45.56;92552.69;2070857;69;20839;-69
2021/12/23 12:10:33;;;;;;;26.30;11.45;;;;;;;3.57;45.57;92549.66;2069805;69;20144;-68
2021/12/23 12:13:02;;;;;;;27.77;10.40;;;;;;;3.56;44.76;92537.06;2069937;69;20186;-69
2021/12/23 12:15:38;;;;;;;21.00;10.20;;;;;;;3.59;44.27;92529.63;2070694;69;20151;-70
2021/12/23 12:18:06;;;;;;;22.73;11.50;;;;;;;3.65;45.17;92527.34;2070188;69;20132;-70
2021/12/23 12:20:36;;;;;;;30.58;13.88;;;;;;;3.08;46.93;92526.13;2071384;69;20135;-69
2021/12/23 12:23:08;;;;;;;25.02;11.98;;;;;;;3.07;47.14;92524.66;2071476;69;20141;-71
2021/12/23 12:25:41;;;;;;;38.20;11.07;;;;;;;2.86;47.57;92533.28;2071409;69;20580;-72
2021/12/23 12:28:06;;;;;;;31.75;13.73;;;;;;;2.85;48.24;92522.75;2071272;69;20154;-74
2021/12/23 12:30:48;;;;;;;21.45;9.07;;;;;;;1.90;49.19;92527.03;2071318;69;20172;-71
2021/12/23 12:33:23;;;;;;;19.95;9.52;;;;;;;2.52;49.12;92542.94;2071305;69;20140;-75
2021/12/23 12:35:58;;;;;;;17.85;7.88;;;;;;;2.85;48.80;92545.00;2068184;69;20164;-71
2021/12/23 12:38:26;;;;;;;18.50;8.95;;;;;;;2.89;48.04;92523.09;2071438;69;20160;-72